sensor_id;sensor_type;location;lat;lon;timestamp;P1;durP1;ratioP1;P2;durP2;ratioP2
51558;SDS011;61650;48.882;2.092;2022-09-21T00:00:23;6.63;;;5.23;;
51558;SDS011;61650;48.882;2.092;2022-09-21T00:02:49;6.23;;;5.63;;
51558;SDS011;61650;48.882;2.092;2022-09-21T00:05:15;5.70;;;5.17;;
51558;SDS011;61650;48.882;2.092;2022-09-21T00:07:41;6.80;;;6.10;;
51558;SDS011;61650;48.882;2.092;2022-09-21T00:10:07;5.60;;;5.10;;
51558;SDS011;61650;48.882;2.092;2022-09-21T00:12:33;5.23;;;4.73;;
51558;SDS011;61650;48.882;2.092;2022-09-21T00:15:03;5.37;;;4.97;;
51558;SDS011;61650;48.882;2.092;2022-09-21T00:17:33;5.60;;;5.10;;
51558;SDS011;61650;48.882;2.092;2022-09-21T00:19:59;5.77;;;5.17;;
51558;SDS011;61650;48.882;2.092;2022-09-21T00:22:26;6.90;;;5.10;;
51558;SDS011;61650;48.882;2.092;2022-09-21T00:24:52;5.63;;;5.13;;
51558;SDS011;61650;48.882;2.092;2022-09-21T00:27:18;6.00;;;5.30;;
51558;SDS011;61650;48.882;2.092;2022-09-21T00:29:43;5.63;;;5.13;;
51558;SDS011;61650;48.882;2.092;2022-09-21T00:32:09;6.40;;;5.80;;
51558;SDS011;61650;48.882;2.092;2022-09-21T00:34:35;5.93;;;5.37;;
51558;SDS011;61650;48.882;2.092;2022-09-21T00:37:01;5.90;;;5.30;;
51558;SDS011;61650;48.882;2.092;2022-09-21T00:39:26;5.63;;;5.10;;
51558;SDS011;61650;48.882;2.092;2022-09-21T00:41:52;5.53;;;5.00;;
51558;SDS011;61650;48.882;2.092;2022-09-21T00:44:27;7.00;;;5.33;;
51558;SDS011;61650;48.882;2.092;2022-09-21T00:46:55;5.10;;;4.70;;
51558;SDS011;61650;48.882;2.092;2022-09-21T00:49:25;5.67;;;5.07;;
51558;SDS011;61650;48.882;2.092;2022-09-21T00:51:51;6.40;;;5.80;;
51558;SDS011;61650;48.882;2.092;2022-09-21T00:54:25;5.73;;;5.23;;
51558;SDS011;61650;48.882;2.092;2022-09-21T00:56:56;5.77;;;5.27;;
51558;SDS011;61650;48.882;2.092;2022-09-21T00:59:26;6.67;;;5.50;;
51558;SDS011;61650;48.882;2.092;2022-09-21T01:01:54;6.10;;;5.60;;
51558;SDS011;61650;48.882;2.092;2022-09-21T01:04:20;6.50;;;5.43;;
51558;SDS011;61650;48.882;2.092;2022-09-21T01:06:46;6.93;;;5.47;;
51558;SDS011;61650;48.882;2.092;2022-09-21T01:09:14;6.00;;;5.17;;
51558;SDS011;61650;48.882;2.092;2022-09-21T01:14:43;5.87;;;5.27;;
51558;SDS011;61650;48.882;2.092;2022-09-21T01:26:06;5.70;;;5.20;;
51558;SDS011;61650;48.882;2.092;2022-09-21T01:31:39;6.83;;;5.30;;
51558;SDS011;61650;48.882;2.092;2022-09-21T01:34:32;6.85;;;5.40;;
51558;SDS011;61650;48.882;2.092;2022-09-21T01:37:31;5.23;;;4.73;;
51558;SDS011;61650;48.882;2.092;2022-09-21T01:39:59;5.87;;;5.37;;
51558;SDS011;61650;48.882;2.092;2022-09-21T01:42:28;6.57;;;5.87;;
51558;SDS011;61650;48.882;2.092;2022-09-21T01:44:56;5.67;;;5.07;;
51558;SDS011;61650;48.882;2.092;2022-09-21T01:47:24;6.43;;;5.45;;
51558;SDS011;61650;48.882;2.092;2022-09-21T01:49:55;5.87;;;5.37;;
51558;SDS011;61650;48.882;2.092;2022-09-21T01:55:17;7.33;;;5.20;;
51558;SDS011;61650;48.882;2.092;2022-09-21T01:58:04;6.03;;;4.97;;
51558;SDS011;61650;48.882;2.092;2022-09-21T02:00:37;6.20;;;5.03;;
51558;SDS011;61650;48.882;2.092;2022-09-21T02:03:11;6.50;;;4.80;;
51558;SDS011;61650;48.882;2.092;2022-09-21T02:05:44;6.03;;;5.47;;
51558;SDS011;61650;48.882;2.092;2022-09-21T02:08:09;5.87;;;5.37;;
51558;SDS011;61650;48.882;2.092;2022-09-21T02:10:40;6.18;;;5.25;;
51558;SDS011;61650;48.882;2.092;2022-09-21T02:13:09;6.37;;;5.77;;
51558;SDS011;61650;48.882;2.092;2022-09-21T02:30:18;5.70;;;5.30;;
51558;SDS011;61650;48.882;2.092;2022-09-21T02:33:07;6.60;;;5.55;;
51558;SDS011;61650;48.882;2.092;2022-09-21T02:38:13;6.30;;;5.70;;
51558;SDS011;61650;48.882;2.092;2022-09-21T02:40:51;5.40;;;4.87;;
51558;SDS011;61650;48.882;2.092;2022-09-21T02:43:22;5.68;;;4.97;;
51558;SDS011;61650;48.882;2.092;2022-09-21T02:45:55;7.60;;;5.38;;
51558;SDS011;61650;48.882;2.092;2022-09-21T02:48:30;5.70;;;5.10;;
51558;SDS011;61650;48.882;2.092;2022-09-21T02:51:08;5.45;;;4.95;;
51558;SDS011;61650;48.882;2.092;2022-09-21T02:53:38;5.43;;;4.90;;
51558;SDS011;61650;48.882;2.092;2022-09-21T02:56:06;6.45;;;5.30;;
51558;SDS011;61650;48.882;2.092;2022-09-21T02:58:34;5.70;;;5.20;;
51558;SDS011;61650;48.882;2.092;2022-09-21T03:01:03;6.32;;;5.35;;
51558;SDS011;61650;48.882;2.092;2022-09-21T03:03:31;7.47;;;5.20;;
51558;SDS011;61650;48.882;2.092;2022-09-21T03:05:57;11.90;;;5.40;;
51558;SDS011;61650;48.882;2.092;2022-09-21T03:08:23;5.43;;;4.93;;
51558;SDS011;61650;48.882;2.092;2022-09-21T03:10:49;6.03;;;5.00;;
51558;SDS011;61650;48.882;2.092;2022-09-21T03:13:15;5.37;;;4.87;;
51558;SDS011;61650;48.882;2.092;2022-09-21T03:15:41;5.28;;;4.75;;
51558;SDS011;61650;48.882;2.092;2022-09-21T03:18:09;5.50;;;5.00;;
51558;SDS011;61650;48.882;2.092;2022-09-21T03:20:39;6.38;;;5.50;;
51558;SDS011;61650;48.882;2.092;2022-09-21T03:23:10;5.63;;;5.13;;
51558;SDS011;61650;48.882;2.092;2022-09-21T03:25:36;6.60;;;5.05;;
51558;SDS011;61650;48.882;2.092;2022-09-21T03:28:02;6.00;;;5.30;;
51558;SDS011;61650;48.882;2.092;2022-09-21T03:30:28;6.00;;;4.77;;
51558;SDS011;61650;48.882;2.092;2022-09-21T03:32:55;6.30;;;5.32;;
51558;SDS011;61650;48.882;2.092;2022-09-21T03:35:22;6.03;;;5.13;;
51558;SDS011;61650;48.882;2.092;2022-09-21T03:37:50;5.95;;;5.38;;
51558;SDS011;61650;48.882;2.092;2022-09-21T03:40:16;5.43;;;4.93;;
51558;SDS011;61650;48.882;2.092;2022-09-21T03:42:42;5.60;;;5.10;;
51558;SDS011;61650;48.882;2.092;2022-09-21T03:45:08;5.47;;;4.80;;
51558;SDS011;61650;48.882;2.092;2022-09-21T03:47:35;5.47;;;4.63;;
51558;SDS011;61650;48.882;2.092;2022-09-21T03:50:01;5.22;;;4.70;;
51558;SDS011;61650;48.882;2.092;2022-09-21T03:52:27;5.22;;;4.75;;
51558;SDS011;61650;48.882;2.092;2022-09-21T03:54:53;6.07;;;4.93;;
51558;SDS011;61650;48.882;2.092;2022-09-21T03:57:19;6.40;;;4.55;;
51558;SDS011;61650;48.882;2.092;2022-09-21T03:59:45;6.23;;;4.73;;
51558;SDS011;61650;48.882;2.092;2022-09-21T04:02:10;5.40;;;4.90;;
51558;SDS011;61650;48.882;2.092;2022-09-21T04:04:36;5.33;;;4.83;;
51558;SDS011;61650;48.882;2.092;2022-09-21T04:07:01;5.90;;;5.10;;
51558;SDS011;61650;48.882;2.092;2022-09-21T04:09:28;5.45;;;4.95;;
51558;SDS011;61650;48.882;2.092;2022-09-21T04:11:54;9.98;;;4.80;;
51558;SDS011;61650;48.882;2.092;2022-09-21T04:14:20;5.60;;;4.90;;
51558;SDS011;61650;48.882;2.092;2022-09-21T04:16:46;6.03;;;4.90;;
51558;SDS011;61650;48.882;2.092;2022-09-21T04:19:11;5.40;;;4.57;;
51558;SDS011;61650;48.882;2.092;2022-09-21T04:21:37;5.20;;;4.30;;
51558;SDS011;61650;48.882;2.092;2022-09-21T04:24:03;7.37;;;5.23;;
51558;SDS011;61650;48.882;2.092;2022-09-21T04:26:30;5.23;;;4.43;;
51558;SDS011;61650;48.882;2.092;2022-09-21T04:28:57;6.07;;;4.63;;
51558;SDS011;61650;48.882;2.092;2022-09-21T04:31:24;4.82;;;4.32;;
51558;SDS011;61650;48.882;2.092;2022-09-21T04:33:51;4.70;;;4.30;;
51558;SDS011;61650;48.882;2.092;2022-09-21T04:36:19;5.80;;;4.40;;
51558;SDS011;61650;48.882;2.092;2022-09-21T04:38:45;5.18;;;4.68;;
51558;SDS011;61650;48.882;2.092;2022-09-21T04:41:11;5.13;;;4.60;;
51558;SDS011;61650;48.882;2.092;2022-09-21T04:43:40;6.20;;;5.13;;
51558;SDS011;61650;48.882;2.092;2022-09-21T04:46:08;4.88;;;4.38;;
51558;SDS011;61650;48.882;2.092;2022-09-21T04:48:35;4.85;;;4.45;;
51558;SDS011;61650;48.882;2.092;2022-09-21T04:51:01;5.07;;;4.53;;
51558;SDS011;61650;48.882;2.092;2022-09-21T04:53:27;6.00;;;4.45;;
51558;SDS011;61650;48.882;2.092;2022-09-21T04:55:53;4.68;;;4.20;;
51558;SDS011;61650;48.882;2.092;2022-09-21T04:58:19;4.78;;;4.38;;
51558;SDS011;61650;48.882;2.092;2022-09-21T05:00:48;4.97;;;4.53;;
51558;SDS011;61650;48.882;2.092;2022-09-21T05:03:15;7.40;;;5.10;;
51558;SDS011;61650;48.882;2.092;2022-09-21T05:05:45;5.10;;;4.60;;
51558;SDS011;61650;48.882;2.092;2022-09-21T05:08:14;6.15;;;4.43;;
51558;SDS011;61650;48.882;2.092;2022-09-21T05:10:41;5.75;;;4.10;;
51558;SDS011;61650;48.882;2.092;2022-09-21T05:13:07;5.57;;;5.07;;
51558;SDS011;61650;48.882;2.092;2022-09-21T05:15:33;6.00;;;4.77;;
51558;SDS011;61650;48.882;2.092;2022-09-21T05:17:58;6.07;;;4.50;;
51558;SDS011;61650;48.882;2.092;2022-09-21T05:20:24;5.87;;;4.10;;
51558;SDS011;61650;48.882;2.092;2022-09-21T05:22:49;5.20;;;4.80;;
51558;SDS011;61650;48.882;2.092;2022-09-21T05:25:15;5.07;;;4.47;;
51558;SDS011;61650;48.882;2.092;2022-09-21T05:27:41;5.03;;;4.30;;
51558;SDS011;61650;48.882;2.092;2022-09-21T05:30:07;5.77;;;4.97;;
51558;SDS011;61650;48.882;2.092;2022-09-21T05:40:30;5.43;;;4.05;;
51558;SDS011;61650;48.882;2.092;2022-09-21T05:42:56;8.32;;;5.10;;
51558;SDS011;61650;48.882;2.092;2022-09-21T05:45:21;4.73;;;4.17;;
51558;SDS011;61650;48.882;2.092;2022-09-21T05:47:52;5.25;;;4.50;;
51558;SDS011;61650;48.882;2.092;2022-09-21T05:50:40;4.78;;;4.35;;
51558;SDS011;61650;48.882;2.092;2022-09-21T06:03:26;6.85;;;5.05;;
51558;SDS011;61650;48.882;2.092;2022-09-21T06:05:56;7.40;;;5.05;;
51558;SDS011;61650;48.882;2.092;2022-09-21T06:08:23;6.90;;;5.28;;
51558;SDS011;61650;48.882;2.092;2022-09-21T06:10:49;7.70;;;5.00;;
51558;SDS011;61650;48.882;2.092;2022-09-21T06:13:15;5.90;;;5.10;;
51558;SDS011;61650;48.882;2.092;2022-09-21T06:15:44;5.88;;;5.30;;
51558;SDS011;61650;48.882;2.092;2022-09-21T06:18:10;6.32;;;5.13;;
51558;SDS011;61650;48.882;2.092;2022-09-21T06:20:36;5.57;;;5.07;;
51558;SDS011;61650;48.882;2.092;2022-09-21T06:23:02;8.50;;;5.37;;
51558;SDS011;61650;48.882;2.092;2022-09-21T06:25:29;5.90;;;5.30;;
51558;SDS011;61650;48.882;2.092;2022-09-21T06:27:55;6.13;;;5.37;;
51558;SDS011;61650;48.882;2.092;2022-09-21T06:30:26;15.80;;;12.60;;
51558;SDS011;61650;48.882;2.092;2022-09-21T06:32:52;7.27;;;6.30;;
51558;SDS011;61650;48.882;2.092;2022-09-21T06:35:18;9.40;;;6.20;;
51558;SDS011;61650;48.882;2.092;2022-09-21T06:37:43;6.33;;;5.73;;
51558;SDS011;61650;48.882;2.092;2022-09-21T06:40:09;7.77;;;6.30;;
51558;SDS011;61650;48.882;2.092;2022-09-21T06:42:34;8.70;;;6.50;;
51558;SDS011;61650;48.882;2.092;2022-09-21T06:45:00;7.93;;;6.70;;
51558;SDS011;61650;48.882;2.092;2022-09-21T06:47:27;10.30;;;7.13;;
51558;SDS011;61650;48.882;2.092;2022-09-21T06:49:52;9.67;;;8.13;;
51558;SDS011;61650;48.882;2.092;2022-09-21T06:52:18;7.73;;;6.60;;
51558;SDS011;61650;48.882;2.092;2022-09-21T06:54:44;7.50;;;6.50;;
51558;SDS011;61650;48.882;2.092;2022-09-21T06:57:09;10.47;;;7.27;;
51558;SDS011;61650;48.882;2.092;2022-09-21T06:59:35;10.93;;;6.80;;
51558;SDS011;61650;48.882;2.092;2022-09-21T07:02:00;8.10;;;6.80;;
51558;SDS011;61650;48.882;2.092;2022-09-21T07:04:26;10.37;;;7.30;;
51558;SDS011;61650;48.882;2.092;2022-09-21T07:06:53;10.02;;;7.45;;
51558;SDS011;61650;48.882;2.092;2022-09-21T07:09:19;8.70;;;5.95;;
51558;SDS011;61650;48.882;2.092;2022-09-21T07:11:45;14.03;;;6.90;;
51558;SDS011;61650;48.882;2.092;2022-09-21T07:14:11;21.77;;;7.93;;
51558;SDS011;61650;48.882;2.092;2022-09-21T07:16:39;50.30;;;11.30;;
51558;SDS011;61650;48.882;2.092;2022-09-21T07:19:04;32.43;;;10.57;;
51558;SDS011;61650;48.882;2.092;2022-09-21T07:21:30;14.60;;;7.47;;
51558;SDS011;61650;48.882;2.092;2022-09-21T07:23:58;15.47;;;7.00;;
51558;SDS011;61650;48.882;2.092;2022-09-21T07:26:24;12.00;;;6.60;;
51558;SDS011;61650;48.882;2.092;2022-09-21T07:28:50;8.00;;;6.23;;
51558;SDS011;61650;48.882;2.092;2022-09-21T07:31:15;8.60;;;6.27;;
51558;SDS011;61650;48.882;2.092;2022-09-21T07:33:41;9.03;;;6.80;;
51558;SDS011;61650;48.882;2.092;2022-09-21T07:36:10;10.03;;;6.00;;
51558;SDS011;61650;48.882;2.092;2022-09-21T07:38:37;8.83;;;6.33;;
51558;SDS011;61650;48.882;2.092;2022-09-21T07:41:08;8.13;;;6.00;;
51558;SDS011;61650;48.882;2.092;2022-09-21T07:43:34;9.87;;;6.70;;
51558;SDS011;61650;48.882;2.092;2022-09-21T07:46:03;9.03;;;6.67;;
51558;SDS011;61650;48.882;2.092;2022-09-21T07:48:29;9.90;;;5.90;;
51558;SDS011;61650;48.882;2.092;2022-09-21T07:50:59;10.67;;;5.63;;
51558;SDS011;61650;48.882;2.092;2022-09-21T07:53:30;10.17;;;5.93;;
51558;SDS011;61650;48.882;2.092;2022-09-21T07:55:59;9.87;;;6.50;;
51558;SDS011;61650;48.882;2.092;2022-09-21T07:58:29;9.60;;;7.27;;
51558;SDS011;61650;48.882;2.092;2022-09-21T08:01:14;13.48;;;8.10;;
51558;SDS011;61650;48.882;2.092;2022-09-21T08:03:39;13.93;;;8.10;;
51558;SDS011;61650;48.882;2.092;2022-09-21T08:06:05;13.80;;;7.63;;
51558;SDS011;61650;48.882;2.092;2022-09-21T08:08:31;10.20;;;7.20;;
51558;SDS011;61650;48.882;2.092;2022-09-21T08:11:03;11.27;;;8.13;;
51558;SDS011;61650;48.882;2.092;2022-09-21T08:13:30;10.70;;;7.83;;
51558;SDS011;61650;48.882;2.092;2022-09-21T08:15:59;12.20;;;7.67;;
51558;SDS011;61650;48.882;2.092;2022-09-21T08:18:26;10.93;;;8.43;;
51558;SDS011;61650;48.882;2.092;2022-09-21T08:20:55;11.90;;;7.93;;
51558;SDS011;61650;48.882;2.092;2022-09-21T08:23:22;13.80;;;9.20;;
51558;SDS011;61650;48.882;2.092;2022-09-21T08:25:48;12.93;;;7.70;;
51558;SDS011;61650;48.882;2.092;2022-09-21T08:28:14;11.50;;;8.00;;
51558;SDS011;61650;48.882;2.092;2022-09-21T08:30:40;15.17;;;8.13;;
51558;SDS011;61650;48.882;2.092;2022-09-21T08:33:06;11.63;;;8.30;;
51558;SDS011;61650;48.882;2.092;2022-09-21T08:35:33;11.70;;;8.60;;
51558;SDS011;61650;48.882;2.092;2022-09-21T08:37:59;9.87;;;8.23;;
51558;SDS011;61650;48.882;2.092;2022-09-21T08:40:25;10.60;;;8.33;;
51558;SDS011;61650;48.882;2.092;2022-09-21T08:45:23;10.07;;;8.17;;
51558;SDS011;61650;48.882;2.092;2022-09-21T08:47:55;14.50;;;8.80;;
51558;SDS011;61650;48.882;2.092;2022-09-21T08:52:57;18.33;;;9.73;;
51558;SDS011;61650;48.882;2.092;2022-09-21T08:55:28;13.03;;;9.37;;
51558;SDS011;61650;48.882;2.092;2022-09-21T08:57:53;10.80;;;8.90;;
51558;SDS011;61650;48.882;2.092;2022-09-21T09:00:19;13.17;;;9.77;;
51558;SDS011;61650;48.882;2.092;2022-09-21T09:02:50;13.17;;;8.87;;
51558;SDS011;61650;48.882;2.092;2022-09-21T09:19:20;13.70;;;9.00;;
51558;SDS011;61650;48.882;2.092;2022-09-21T09:22:02;16.57;;;9.37;;
51558;SDS011;61650;48.882;2.092;2022-09-21T09:24:38;12.07;;;8.87;;
51558;SDS011;61650;48.882;2.092;2022-09-21T09:27:17;14.60;;;9.10;;
51558;SDS011;61650;48.882;2.092;2022-09-21T09:37:50;11.57;;;8.23;;
51558;SDS011;61650;48.882;2.092;2022-09-21T09:40:51;10.70;;;7.73;;
51558;SDS011;61650;48.882;2.092;2022-09-21T09:51:48;11.33;;;7.20;;
51558;SDS011;61650;48.882;2.092;2022-09-21T09:54:15;8.80;;;6.80;;
51558;SDS011;61650;48.882;2.092;2022-09-21T09:56:44;11.13;;;7.17;;
51558;SDS011;61650;48.882;2.092;2022-09-21T09:59:31;7.33;;;5.30;;
51558;SDS011;61650;48.882;2.092;2022-09-21T10:02:00;11.87;;;5.20;;
51558;SDS011;61650;48.882;2.092;2022-09-21T10:04:31;9.97;;;5.73;;
51558;SDS011;61650;48.882;2.092;2022-09-21T10:06:58;4.50;;;3.97;;
51558;SDS011;61650;48.882;2.092;2022-09-21T10:09:26;5.40;;;3.70;;
51558;SDS011;61650;48.882;2.092;2022-09-21T10:11:53;4.07;;;3.47;;
51558;SDS011;61650;48.882;2.092;2022-09-21T10:14:23;5.23;;;4.70;;
51558;SDS011;61650;48.882;2.092;2022-09-21T10:16:49;5.07;;;3.47;;
51558;SDS011;61650;48.882;2.092;2022-09-21T10:19:18;4.43;;;3.83;;
51558;SDS011;61650;48.882;2.092;2022-09-21T10:21:59;5.83;;;3.57;;
51558;SDS011;61650;48.882;2.092;2022-09-21T10:24:32;5.90;;;3.60;;
51558;SDS011;61650;48.882;2.092;2022-09-21T10:29:40;5.77;;;3.07;;
51558;SDS011;61650;48.882;2.092;2022-09-21T10:34:38;3.50;;;2.97;;
51558;SDS011;61650;48.882;2.092;2022-09-21T10:39:52;5.30;;;4.03;;
51558;SDS011;61650;48.882;2.092;2022-09-21T10:42:19;4.30;;;3.37;;
51558;SDS011;61650;48.882;2.092;2022-09-21T10:49:59;3.33;;;3.03;;
51558;SDS011;61650;48.882;2.092;2022-09-21T10:52:37;3.70;;;2.70;;
51558;SDS011;61650;48.882;2.092;2022-09-21T10:55:06;3.97;;;3.10;;
51558;SDS011;61650;48.882;2.092;2022-09-21T10:57:41;4.23;;;2.70;;
51558;SDS011;61650;48.882;2.092;2022-09-21T11:00:25;3.53;;;2.90;;
51558;SDS011;61650;48.882;2.092;2022-09-21T11:02:59;4.20;;;2.53;;
51558;SDS011;61650;48.882;2.092;2022-09-21T11:05:35;4.27;;;2.70;;
51558;SDS011;61650;48.882;2.092;2022-09-21T11:16:14;6.80;;;4.00;;
51558;SDS011;61650;48.882;2.092;2022-09-21T11:21:47;3.60;;;3.17;;
51558;SDS011;61650;48.882;2.092;2022-09-21T11:24:19;5.70;;;3.10;;
51558;SDS011;61650;48.882;2.092;2022-09-21T11:27:16;3.93;;;2.53;;
51558;SDS011;61650;48.882;2.092;2022-09-21T11:43:10;3.40;;;3.10;;
51558;SDS011;61650;48.882;2.092;2022-09-21T11:46:04;9.90;;;2.90;;
51558;SDS011;61650;48.882;2.092;2022-09-21T11:54:15;2.37;;;2.17;;
51558;SDS011;61650;48.882;2.092;2022-09-21T12:02:44;3.47;;;2.60;;
51558;SDS011;61650;48.882;2.092;2022-09-21T12:15:53;3.60;;;2.50;;
51558;SDS011;61650;48.882;2.092;2022-09-21T12:18:38;9.53;;;2.23;;
51558;SDS011;61650;48.882;2.092;2022-09-21T12:21:23;4.30;;;2.43;;
51558;SDS011;61650;48.882;2.092;2022-09-21T12:23:54;5.17;;;2.50;;
51558;SDS011;61650;48.882;2.092;2022-09-21T12:26:26;7.60;;;2.37;;
51558;SDS011;61650;48.882;2.092;2022-09-21T12:29:02;5.10;;;2.17;;
51558;SDS011;61650;48.882;2.092;2022-09-21T12:32:00;2.60;;;2.00;;
51558;SDS011;61650;48.882;2.092;2022-09-21T12:34:39;3.33;;;2.03;;
51558;SDS011;61650;48.882;2.092;2022-09-21T12:40:23;6.17;;;2.27;;
51558;SDS011;61650;48.882;2.092;2022-09-21T12:43:01;9.33;;;2.10;;
51558;SDS011;61650;48.882;2.092;2022-09-21T12:46:05;3.17;;;2.07;;
51558;SDS011;61650;48.882;2.092;2022-09-21T12:48:52;3.13;;;1.90;;
51558;SDS011;61650;48.882;2.092;2022-09-21T12:53:47;2.00;;;1.50;;
51558;SDS011;61650;48.882;2.092;2022-09-21T12:56:21;1.90;;;1.70;;
51558;SDS011;61650;48.882;2.092;2022-09-21T13:07:30;1.97;;;1.63;;
51558;SDS011;61650;48.882;2.092;2022-09-21T13:10:15;1.70;;;1.30;;
51558;SDS011;61650;48.882;2.092;2022-09-21T13:12:46;1.83;;;1.40;;
51558;SDS011;61650;48.882;2.092;2022-09-21T13:15:28;2.10;;;1.50;;
51558;SDS011;61650;48.882;2.092;2022-09-21T13:18:00;2.30;;;1.40;;
51558;SDS011;61650;48.882;2.092;2022-09-21T13:20:35;3.10;;;1.50;;
51558;SDS011;61650;48.882;2.092;2022-09-21T13:23:03;3.57;;;1.83;;
51558;SDS011;61650;48.882;2.092;2022-09-21T13:25:30;7.20;;;1.60;;
51558;SDS011;61650;48.882;2.092;2022-09-21T13:30:33;2.27;;;1.70;;
51558;SDS011;61650;48.882;2.092;2022-09-21T13:49:01;1.93;;;1.80;;
51558;SDS011;61650;48.882;2.092;2022-09-21T13:51:34;2.60;;;1.63;;
51558;SDS011;61650;48.882;2.092;2022-09-21T13:54:45;3.13;;;1.50;;
51558;SDS011;61650;48.882;2.092;2022-09-21T13:59:44;74.87;;;7.60;;
51558;SDS011;61650;48.882;2.092;2022-09-21T14:02:36;37.70;;;6.13;;
51558;SDS011;61650;48.882;2.092;2022-09-21T14:08:03;5.07;;;1.40;;
51558;SDS011;61650;48.882;2.092;2022-09-21T14:10:39;166.60;;;17.70;;
51558;SDS011;61650;48.882;2.092;2022-09-21T14:18:58;2.13;;;1.30;;
51558;SDS011;61650;48.882;2.092;2022-09-21T14:21:25;1.93;;;1.30;;
51558;SDS011;61650;48.882;2.092;2022-09-21T14:29:48;2.67;;;1.50;;
51558;SDS011;61650;48.882;2.092;2022-09-21T14:32:18;2.60;;;1.40;;
51558;SDS011;61650;48.882;2.092;2022-09-21T14:34:48;1.60;;;1.50;;
51558;SDS011;61650;48.882;2.092;2022-09-21T14:37:27;2.33;;;1.40;;
51558;SDS011;61650;48.882;2.092;2022-09-21T14:39:57;3.03;;;1.60;;
51558;SDS011;61650;48.882;2.092;2022-09-21T14:42:27;2.20;;;1.60;;
51558;SDS011;61650;48.882;2.092;2022-09-21T14:44:59;2.67;;;1.60;;
51558;SDS011;61650;48.882;2.092;2022-09-21T14:50:14;2.30;;;1.50;;
51558;SDS011;61650;48.882;2.092;2022-09-21T14:55:26;2.67;;;1.60;;
51558;SDS011;61650;48.882;2.092;2022-09-21T15:00:48;3.80;;;1.40;;
51558;SDS011;61650;48.882;2.092;2022-09-21T15:05:55;2.10;;;1.63;;
51558;SDS011;61650;48.882;2.092;2022-09-21T15:12:13;1.90;;;1.30;;
51558;SDS011;61650;48.882;2.092;2022-09-21T15:14:45;1.50;;;1.40;;
51558;SDS011;61650;48.882;2.092;2022-09-21T15:17:27;3.20;;;1.50;;
51558;SDS011;61650;48.882;2.092;2022-09-21T15:20:00;3.57;;;1.57;;
51558;SDS011;61650;48.882;2.092;2022-09-21T15:22:43;3.27;;;1.67;;
51558;SDS011;61650;48.882;2.092;2022-09-21T15:25:11;3.13;;;1.60;;
51558;SDS011;61650;48.882;2.092;2022-09-21T15:27:37;1.83;;;1.40;;
51558;SDS011;61650;48.882;2.092;2022-09-21T15:30:17;5.53;;;1.67;;
51558;SDS011;61650;48.882;2.092;2022-09-21T15:32:46;3.00;;;1.37;;
51558;SDS011;61650;48.882;2.092;2022-09-21T15:35:19;3.30;;;1.50;;
51558;SDS011;61650;48.882;2.092;2022-09-21T15:37:45;1.93;;;1.40;;
51558;SDS011;61650;48.882;2.092;2022-09-21T15:42:56;3.10;;;1.60;;
51558;SDS011;61650;48.882;2.092;2022-09-21T15:45:29;4.87;;;1.50;;
51558;SDS011;61650;48.882;2.092;2022-09-21T15:48:10;3.10;;;1.60;;
51558;SDS011;61650;48.882;2.092;2022-09-21T15:50:38;2.60;;;1.60;;
51558;SDS011;61650;48.882;2.092;2022-09-21T15:53:07;3.57;;;1.70;;
51558;SDS011;61650;48.882;2.092;2022-09-21T15:55:44;2.90;;;1.80;;
51558;SDS011;61650;48.882;2.092;2022-09-21T15:58:31;2.50;;;1.30;;
51558;SDS011;61650;48.882;2.092;2022-09-21T16:01:03;3.00;;;1.73;;
51558;SDS011;61650;48.882;2.092;2022-09-21T16:03:38;4.00;;;1.90;;
51558;SDS011;61650;48.882;2.092;2022-09-21T16:06:27;2.27;;;1.40;;
51558;SDS011;61650;48.882;2.092;2022-09-21T16:09:25;7.43;;;1.60;;
51558;SDS011;61650;48.882;2.092;2022-09-21T16:11:48;2.23;;;1.57;;
51558;SDS011;61650;48.882;2.092;2022-09-21T16:14:15;3.27;;;1.83;;
51558;SDS011;61650;48.882;2.092;2022-09-21T16:22:21;2.70;;;1.40;;
51558;SDS011;61650;48.882;2.092;2022-09-21T16:25:00;4.63;;;1.50;;
51558;SDS011;61650;48.882;2.092;2022-09-21T16:27:28;1.50;;;1.30;;
51558;SDS011;61650;48.882;2.092;2022-09-21T16:29:56;2.50;;;1.30;;
51558;SDS011;61650;48.882;2.092;2022-09-21T16:34:51;3.10;;;1.50;;
51558;SDS011;61650;48.882;2.092;2022-09-21T16:39:44;2.40;;;1.50;;
51558;SDS011;61650;48.882;2.092;2022-09-21T16:42:10;2.63;;;1.50;;
51558;SDS011;61650;48.882;2.092;2022-09-21T16:44:37;1.93;;;1.20;;
51558;SDS011;61650;48.882;2.092;2022-09-21T16:47:04;2.03;;;1.60;;
51558;SDS011;61650;48.882;2.092;2022-09-21T16:49:37;3.70;;;1.50;;
51558;SDS011;61650;48.882;2.092;2022-09-21T16:52:03;1.50;;;1.40;;
51558;SDS011;61650;48.882;2.092;2022-09-21T16:54:31;2.33;;;1.73;;
51558;SDS011;61650;48.882;2.092;2022-09-21T16:56:59;4.40;;;1.70;;
51558;SDS011;61650;48.882;2.092;2022-09-21T16:59:26;2.53;;;1.70;;
51558;SDS011;61650;48.882;2.092;2022-09-21T17:01:53;1.87;;;1.77;;
51558;SDS011;61650;48.882;2.092;2022-09-21T17:04:21;3.00;;;2.13;;
51558;SDS011;61650;48.882;2.092;2022-09-21T17:06:49;4.10;;;1.80;;
51558;SDS011;61650;48.882;2.092;2022-09-21T17:11:41;4.87;;;1.83;;
51558;SDS011;61650;48.882;2.092;2022-09-21T17:14:09;3.23;;;1.77;;
51558;SDS011;61650;48.882;2.092;2022-09-21T17:16:39;1.90;;;1.60;;
51558;SDS011;61650;48.882;2.092;2022-09-21T17:19:12;2.40;;;1.40;;
51558;SDS011;61650;48.882;2.092;2022-09-21T17:21:37;2.27;;;1.70;;
51558;SDS011;61650;48.882;2.092;2022-09-21T17:24:03;3.30;;;1.50;;
51558;SDS011;61650;48.882;2.092;2022-09-21T17:26:30;2.60;;;1.67;;
51558;SDS011;61650;48.882;2.092;2022-09-21T17:28:57;2.03;;;1.73;;
51558;SDS011;61650;48.882;2.092;2022-09-21T17:31:23;3.27;;;1.73;;
51558;SDS011;61650;48.882;2.092;2022-09-21T17:33:49;3.87;;;2.10;;
51558;SDS011;61650;48.882;2.092;2022-09-21T17:36:15;3.57;;;1.87;;
51558;SDS011;61650;48.882;2.092;2022-09-21T17:38:42;3.50;;;1.70;;
51558;SDS011;61650;48.882;2.092;2022-09-21T17:41:44;5.80;;;2.20;;
51558;SDS011;61650;48.882;2.092;2022-09-21T17:49:40;3.97;;;2.80;;
51558;SDS011;61650;48.882;2.092;2022-09-21T17:52:12;3.33;;;2.47;;
51558;SDS011;61650;48.882;2.092;2022-09-21T17:54:59;4.17;;;2.40;;
51558;SDS011;61650;48.882;2.092;2022-09-21T18:02:48;3.80;;;2.13;;
51558;SDS011;61650;48.882;2.092;2022-09-21T18:05:17;4.90;;;2.37;;
51558;SDS011;61650;48.882;2.092;2022-09-21T18:07:49;3.20;;;2.40;;
51558;SDS011;61650;48.882;2.092;2022-09-21T18:10:15;5.80;;;2.60;;
51558;SDS011;61650;48.882;2.092;2022-09-21T18:15:21;8.77;;;4.80;;
51558;SDS011;61650;48.882;2.092;2022-09-21T18:20:59;6.27;;;3.93;;
51558;SDS011;61650;48.882;2.092;2022-09-21T18:26:06;4.43;;;3.80;;
51558;SDS011;61650;48.882;2.092;2022-09-21T18:28:43;8.27;;;4.10;;
51558;SDS011;61650;48.882;2.092;2022-09-21T18:38:41;16.77;;;11.43;;
51558;SDS011;61650;48.882;2.092;2022-09-21T18:44:23;15.97;;;11.43;;
51558;SDS011;61650;48.882;2.092;2022-09-21T18:47:10;20.47;;;12.37;;
51558;SDS011;61650;48.882;2.092;2022-09-21T18:49:49;13.00;;;10.70;;
51558;SDS011;61650;48.882;2.092;2022-09-21T18:55:33;21.30;;;14.20;;
51558;SDS011;61650;48.882;2.092;2022-09-21T18:57:58;17.30;;;12.10;;
51558;SDS011;61650;48.882;2.092;2022-09-21T19:00:25;13.97;;;11.43;;
51558;SDS011;61650;48.882;2.092;2022-09-21T19:03:01;12.83;;;10.47;;
51558;SDS011;61650;48.882;2.092;2022-09-21T19:05:30;14.47;;;11.67;;
51558;SDS011;61650;48.882;2.092;2022-09-21T19:08:03;10.23;;;9.13;;
51558;SDS011;61650;48.882;2.092;2022-09-21T19:10:44;9.10;;;7.60;;
51558;SDS011;61650;48.882;2.092;2022-09-21T19:18:30;8.43;;;7.50;;
51558;SDS011;61650;48.882;2.092;2022-09-21T19:26:32;11.63;;;9.00;;
51558;SDS011;61650;48.882;2.092;2022-09-21T19:31:53;8.27;;;6.73;;
51558;SDS011;61650;48.882;2.092;2022-09-21T19:34:19;7.60;;;6.77;;
51558;SDS011;61650;48.882;2.092;2022-09-21T19:36:45;9.17;;;7.67;;
51558;SDS011;61650;48.882;2.092;2022-09-21T19:39:11;10.37;;;9.30;;